Terminal Aerodrome Forecast
Issued by NWS

Home | Current Version | Previous Version | Text Only | Print | Product List | Glossary On
Versions: 1 2 3 4 5 6 7 8 9 10 11 12 13 14 15 16 17 18 19
000
FTUS44 KSJT 272300
TAFJCT
TAF
KJCT 272326Z 2800/2824 16013G20KT P6SM SCT050 BKN250
     FM280100 14008KT P6SM BKN100
     FM280700 15007KT P6SM BKN012
     FM281900 16013G20KT P6SM BKN035=

USA.gov is the U.S. government's official web portal to all federal, state and local government web resources and services.